sensor_id;sensor_type;location;lat;lon;timestamp;P1;durP1;ratioP1;P2;durP2;ratioP2
72904;SDS011;61048;52.162;4.516;2023-11-19T00:00:30;6.95;;;1.15;;
72904;SDS011;61048;52.162;4.516;2023-11-19T00:02:56;5.50;;;0.70;;
72904;SDS011;61048;52.162;4.516;2023-11-19T00:05:23;8.35;;;1.17;;
72904;SDS011;61048;52.162;4.516;2023-11-19T00:07:51;9.15;;;1.00;;
72904;SDS011;61048;52.162;4.516;2023-11-19T00:10:19;7.90;;;1.10;;
72904;SDS011;61048;52.162;4.516;2023-11-19T00:12:46;7.70;;;1.00;;
72904;SDS011;61048;52.162;4.516;2023-11-19T00:15:16;10.57;;;0.82;;
72904;SDS011;61048;52.162;4.516;2023-11-19T00:17:45;7.20;;;0.93;;
72904;SDS011;61048;52.162;4.516;2023-11-19T00:20:12;6.60;;;0.93;;
72904;SDS011;61048;52.162;4.516;2023-11-19T00:22:40;10.50;;;1.33;;
72904;SDS011;61048;52.162;4.516;2023-11-19T00:25:07;5.53;;;0.77;;
72904;SDS011;61048;52.162;4.516;2023-11-19T00:27:34;7.93;;;1.17;;
72904;SDS011;61048;52.162;4.516;2023-11-19T00:30:02;8.52;;;0.98;;
72904;SDS011;61048;52.162;4.516;2023-11-19T00:32:32;7.60;;;0.85;;
72904;SDS011;61048;52.162;4.516;2023-11-19T00:34:59;10.30;;;1.55;;
72904;SDS011;61048;52.162;4.516;2023-11-19T00:37:25;7.07;;;1.20;;
72904;SDS011;61048;52.162;4.516;2023-11-19T00:39:52;8.82;;;1.00;;
72904;SDS011;61048;52.162;4.516;2023-11-19T00:42:21;7.90;;;1.35;;
72904;SDS011;61048;52.162;4.516;2023-11-19T00:44:49;9.05;;;1.13;;
72904;SDS011;61048;52.162;4.516;2023-11-19T00:47:16;10.93;;;1.25;;
72904;SDS011;61048;52.162;4.516;2023-11-19T00:49:46;6.88;;;0.80;;
72904;SDS011;61048;52.162;4.516;2023-11-19T00:52:15;7.55;;;1.08;;
72904;SDS011;61048;52.162;4.516;2023-11-19T00:54:42;10.82;;;1.58;;
72904;SDS011;61048;52.162;4.516;2023-11-19T00:57:09;6.47;;;0.57;;
72904;SDS011;61048;52.162;4.516;2023-11-19T00:59:36;7.10;;;0.82;;
72904;SDS011;61048;52.162;4.516;2023-11-19T01:02:03;7.10;;;1.00;;
72904;SDS011;61048;52.162;4.516;2023-11-19T01:04:33;8.32;;;1.10;;
72904;SDS011;61048;52.162;4.516;2023-11-19T01:07:02;9.35;;;1.08;;
72904;SDS011;61048;52.162;4.516;2023-11-19T01:09:30;6.28;;;1.13;;
72904;SDS011;61048;52.162;4.516;2023-11-19T01:11:59;7.00;;;1.00;;
72904;SDS011;61048;52.162;4.516;2023-11-19T01:14:26;6.22;;;1.65;;
72904;SDS011;61048;52.162;4.516;2023-11-19T01:16:53;7.20;;;1.27;;
72904;SDS011;61048;52.162;4.516;2023-11-19T01:19:21;7.47;;;1.10;;
72904;SDS011;61048;52.162;4.516;2023-11-19T01:21:48;7.43;;;1.30;;
72904;SDS011;61048;52.162;4.516;2023-11-19T01:24:17;8.57;;;0.82;;
72904;SDS011;61048;52.162;4.516;2023-11-19T01:26:44;10.20;;;1.23;;
72904;SDS011;61048;52.162;4.516;2023-11-19T01:29:12;9.13;;;1.10;;
72904;SDS011;61048;52.162;4.516;2023-11-19T01:31:40;9.23;;;1.20;;
72904;SDS011;61048;52.162;4.516;2023-11-19T01:34:06;8.90;;;1.08;;
72904;SDS011;61048;52.162;4.516;2023-11-19T01:36:34;9.23;;;1.25;;
72904;SDS011;61048;52.162;4.516;2023-11-19T01:39:01;9.63;;;1.55;;
72904;SDS011;61048;52.162;4.516;2023-11-19T01:41:30;9.32;;;1.33;;
72904;SDS011;61048;52.162;4.516;2023-11-19T01:44:00;8.57;;;1.00;;
72904;SDS011;61048;52.162;4.516;2023-11-19T01:46:27;9.45;;;1.13;;
72904;SDS011;61048;52.162;4.516;2023-11-19T01:48:55;7.55;;;1.10;;
72904;SDS011;61048;52.162;4.516;2023-11-19T01:51:25;8.07;;;1.10;;
72904;SDS011;61048;52.162;4.516;2023-11-19T01:53:53;7.13;;;1.15;;
72904;SDS011;61048;52.162;4.516;2023-11-19T01:56:21;8.35;;;0.90;;
72904;SDS011;61048;52.162;4.516;2023-11-19T01:58:49;13.38;;;1.70;;
72904;SDS011;61048;52.162;4.516;2023-11-19T02:01:17;10.80;;;1.40;;
72904;SDS011;61048;52.162;4.516;2023-11-19T02:03:44;8.40;;;1.20;;
72904;SDS011;61048;52.162;4.516;2023-11-19T02:06:12;9.05;;;1.40;;
72904;SDS011;61048;52.162;4.516;2023-11-19T02:08:39;8.57;;;1.17;;
72904;SDS011;61048;52.162;4.516;2023-11-19T02:11:06;12.00;;;1.60;;
72904;SDS011;61048;52.162;4.516;2023-11-19T02:13:33;7.32;;;1.23;;
72904;SDS011;61048;52.162;4.516;2023-11-19T02:16:03;8.50;;;1.20;;
72904;SDS011;61048;52.162;4.516;2023-11-19T02:18:32;11.15;;;1.40;;
72904;SDS011;61048;52.162;4.516;2023-11-19T02:20:59;7.53;;;1.10;;
72904;SDS011;61048;52.162;4.516;2023-11-19T02:23:26;10.75;;;1.50;;
72904;SDS011;61048;52.162;4.516;2023-11-19T02:26:05;10.90;;;1.90;;
72904;SDS011;61048;52.162;4.516;2023-11-19T02:28:41;8.93;;;1.02;;
72904;SDS011;61048;52.162;4.516;2023-11-19T02:31:09;8.07;;;2.35;;
72904;SDS011;61048;52.162;4.516;2023-11-19T02:33:36;8.85;;;1.33;;
72904;SDS011;61048;52.162;4.516;2023-11-19T02:36:04;10.15;;;1.50;;
72904;SDS011;61048;52.162;4.516;2023-11-19T02:38:32;8.02;;;1.15;;
72904;SDS011;61048;52.162;4.516;2023-11-19T02:41:01;9.80;;;1.55;;
72904;SDS011;61048;52.162;4.516;2023-11-19T02:43:30;9.68;;;1.45;;
72904;SDS011;61048;52.162;4.516;2023-11-19T02:45:59;10.52;;;1.55;;
72904;SDS011;61048;52.162;4.516;2023-11-19T02:48:27;11.90;;;1.40;;
72904;SDS011;61048;52.162;4.516;2023-11-19T02:50:53;7.68;;;1.30;;
72904;SDS011;61048;52.162;4.516;2023-11-19T02:53:23;6.80;;;1.10;;
72904;SDS011;61048;52.162;4.516;2023-11-19T02:55:52;12.18;;;1.48;;
72904;SDS011;61048;52.162;4.516;2023-11-19T02:58:26;11.45;;;1.42;;
72904;SDS011;61048;52.162;4.516;2023-11-19T03:00:53;12.82;;;1.92;;
72904;SDS011;61048;52.162;4.516;2023-11-19T03:03:25;8.77;;;1.65;;
72904;SDS011;61048;52.162;4.516;2023-11-19T03:06:03;8.80;;;1.48;;
72904;SDS011;61048;52.162;4.516;2023-11-19T03:08:31;9.15;;;1.50;;
72904;SDS011;61048;52.162;4.516;2023-11-19T03:10:56;11.68;;;1.25;;
72904;SDS011;61048;52.162;4.516;2023-11-19T03:13:24;10.73;;;1.65;;
72904;SDS011;61048;52.162;4.516;2023-11-19T03:15:51;11.00;;;1.52;;
72904;SDS011;61048;52.162;4.516;2023-11-19T03:18:18;8.95;;;1.48;;
72904;SDS011;61048;52.162;4.516;2023-11-19T03:20:47;9.73;;;1.20;;
72904;SDS011;61048;52.162;4.516;2023-11-19T03:23:14;11.20;;;1.83;;
72904;SDS011;61048;52.162;4.516;2023-11-19T03:25:41;8.90;;;1.42;;
72904;SDS011;61048;52.162;4.516;2023-11-19T03:28:08;9.45;;;1.30;;
72904;SDS011;61048;52.162;4.516;2023-11-19T03:30:36;9.38;;;1.45;;
72904;SDS011;61048;52.162;4.516;2023-11-19T03:33:03;8.07;;;1.63;;
72904;SDS011;61048;52.162;4.516;2023-11-19T03:35:30;11.15;;;1.30;;
72904;SDS011;61048;52.162;4.516;2023-11-19T03:37:59;10.98;;;1.58;;
72904;SDS011;61048;52.162;4.516;2023-11-19T03:40:27;7.93;;;1.25;;
72904;SDS011;61048;52.162;4.516;2023-11-19T03:42:55;13.07;;;1.42;;
72904;SDS011;61048;52.162;4.516;2023-11-19T03:45:22;11.10;;;1.20;;
72904;SDS011;61048;52.162;4.516;2023-11-19T03:47:49;8.75;;;1.52;;
72904;SDS011;61048;52.162;4.516;2023-11-19T03:50:16;13.75;;;1.88;;
72904;SDS011;61048;52.162;4.516;2023-11-19T03:52:45;11.82;;;1.98;;
72904;SDS011;61048;52.162;4.516;2023-11-19T03:55:13;12.43;;;1.42;;
72904;SDS011;61048;52.162;4.516;2023-11-19T03:57:40;6.97;;;1.00;;
72904;SDS011;61048;52.162;4.516;2023-11-19T04:00:06;8.13;;;1.00;;
72904;SDS011;61048;52.162;4.516;2023-11-19T04:02:35;10.77;;;1.38;;
72904;SDS011;61048;52.162;4.516;2023-11-19T04:05:02;11.27;;;1.60;;
72904;SDS011;61048;52.162;4.516;2023-11-19T04:07:30;11.45;;;1.70;;
72904;SDS011;61048;52.162;4.516;2023-11-19T04:09:56;9.55;;;1.30;;
72904;SDS011;61048;52.162;4.516;2023-11-19T04:12:24;9.65;;;1.50;;
72904;SDS011;61048;52.162;4.516;2023-11-19T04:14:51;8.70;;;1.52;;
72904;SDS011;61048;52.162;4.516;2023-11-19T04:17:18;9.63;;;1.33;;
72904;SDS011;61048;52.162;4.516;2023-11-19T04:19:45;12.65;;;1.80;;
72904;SDS011;61048;52.162;4.516;2023-11-19T04:22:13;13.27;;;1.33;;
72904;SDS011;61048;52.162;4.516;2023-11-19T04:24:40;12.35;;;2.00;;
72904;SDS011;61048;52.162;4.516;2023-11-19T04:27:09;8.32;;;1.27;;
72904;SDS011;61048;52.162;4.516;2023-11-19T04:29:37;12.02;;;1.58;;
72904;SDS011;61048;52.162;4.516;2023-11-19T04:32:04;14.40;;;1.92;;
72904;SDS011;61048;52.162;4.516;2023-11-19T04:34:32;11.80;;;2.95;;
72904;SDS011;61048;52.162;4.516;2023-11-19T04:36:59;11.68;;;2.13;;
72904;SDS011;61048;52.162;4.516;2023-11-19T04:39:28;9.73;;;1.67;;
72904;SDS011;61048;52.162;4.516;2023-11-19T04:41:55;9.18;;;1.35;;
72904;SDS011;61048;52.162;4.516;2023-11-19T04:44:22;12.05;;;1.55;;
72904;SDS011;61048;52.162;4.516;2023-11-19T04:46:50;10.68;;;1.80;;
72904;SDS011;61048;52.162;4.516;2023-11-19T04:49:17;12.38;;;1.60;;
72904;SDS011;61048;52.162;4.516;2023-11-19T04:51:44;9.20;;;1.35;;
72904;SDS011;61048;52.162;4.516;2023-11-19T04:54:12;13.18;;;1.85;;
72904;SDS011;61048;52.162;4.516;2023-11-19T04:56:39;13.40;;;2.03;;
72904;SDS011;61048;52.162;4.516;2023-11-19T04:59:06;11.88;;;1.42;;
72904;SDS011;61048;52.162;4.516;2023-11-19T05:01:34;9.80;;;1.70;;
72904;SDS011;61048;52.162;4.516;2023-11-19T05:04:02;8.45;;;1.48;;
72904;SDS011;61048;52.162;4.516;2023-11-19T05:06:30;10.93;;;1.35;;
72904;SDS011;61048;52.162;4.516;2023-11-19T05:08:58;11.00;;;1.60;;
72904;SDS011;61048;52.162;4.516;2023-11-19T05:11:28;13.40;;;1.35;;
72904;SDS011;61048;52.162;4.516;2023-11-19T05:13:55;16.55;;;2.00;;
72904;SDS011;61048;52.162;4.516;2023-11-19T05:16:22;8.38;;;1.30;;
72904;SDS011;61048;52.162;4.516;2023-11-19T05:18:49;11.48;;;1.90;;
72904;SDS011;61048;52.162;4.516;2023-11-19T05:21:17;10.45;;;1.20;;
72904;SDS011;61048;52.162;4.516;2023-11-19T05:23:44;8.23;;;1.52;;
72904;SDS011;61048;52.162;4.516;2023-11-19T05:26:17;13.65;;;2.33;;
72904;SDS011;61048;52.162;4.516;2023-11-19T05:28:44;8.48;;;1.25;;
72904;SDS011;61048;52.162;4.516;2023-11-19T05:31:12;9.60;;;1.30;;
72904;SDS011;61048;52.162;4.516;2023-11-19T05:33:38;8.30;;;1.67;;
72904;SDS011;61048;52.162;4.516;2023-11-19T05:36:06;14.35;;;1.95;;
72904;SDS011;61048;52.162;4.516;2023-11-19T05:38:35;13.80;;;1.55;;
72904;SDS011;61048;52.162;4.516;2023-11-19T05:41:02;13.02;;;1.85;;
72904;SDS011;61048;52.162;4.516;2023-11-19T05:43:29;8.65;;;1.45;;
72904;SDS011;61048;52.162;4.516;2023-11-19T05:45:56;9.00;;;1.50;;
72904;SDS011;61048;52.162;4.516;2023-11-19T05:48:24;9.75;;;2.08;;
72904;SDS011;61048;52.162;4.516;2023-11-19T05:50:52;10.25;;;1.60;;
72904;SDS011;61048;52.162;4.516;2023-11-19T05:53:20;8.63;;;1.30;;
72904;SDS011;61048;52.162;4.516;2023-11-19T05:55:48;10.48;;;2.03;;
72904;SDS011;61048;52.162;4.516;2023-11-19T05:58:20;7.90;;;1.55;;
72904;SDS011;61048;52.162;4.516;2023-11-19T06:00:50;11.80;;;1.52;;
72904;SDS011;61048;52.162;4.516;2023-11-19T06:03:17;10.43;;;1.30;;
72904;SDS011;61048;52.162;4.516;2023-11-19T06:05:44;13.05;;;1.70;;
72904;SDS011;61048;52.162;4.516;2023-11-19T06:08:11;8.93;;;1.20;;
72904;SDS011;61048;52.162;4.516;2023-11-19T06:10:39;14.07;;;1.95;;
72904;SDS011;61048;52.162;4.516;2023-11-19T06:13:08;8.40;;;1.50;;
72904;SDS011;61048;52.162;4.516;2023-11-19T06:15:36;13.73;;;2.00;;
72904;SDS011;61048;52.162;4.516;2023-11-19T06:18:03;11.95;;;1.15;;
72904;SDS011;61048;52.162;4.516;2023-11-19T06:20:30;9.80;;;1.25;;
72904;SDS011;61048;52.162;4.516;2023-11-19T06:22:58;12.82;;;1.48;;
72904;SDS011;61048;52.162;4.516;2023-11-19T06:25:26;16.05;;;2.17;;
72904;SDS011;61048;52.162;4.516;2023-11-19T06:27:53;13.27;;;1.48;;
72904;SDS011;61048;52.162;4.516;2023-11-19T06:30:23;13.27;;;1.35;;
72904;SDS011;61048;52.162;4.516;2023-11-19T06:32:50;11.73;;;1.70;;
72904;SDS011;61048;52.162;4.516;2023-11-19T06:35:17;9.70;;;0.90;;
72904;SDS011;61048;52.162;4.516;2023-11-19T06:37:44;7.22;;;1.40;;
72904;SDS011;61048;52.162;4.516;2023-11-19T06:40:11;7.85;;;1.50;;
72904;SDS011;61048;52.162;4.516;2023-11-19T06:42:38;11.10;;;1.38;;
72904;SDS011;61048;52.162;4.516;2023-11-19T06:45:05;11.02;;;1.10;;
72904;SDS011;61048;52.162;4.516;2023-11-19T06:47:34;9.27;;;1.50;;
72904;SDS011;61048;52.162;4.516;2023-11-19T06:50:01;7.63;;;1.23;;
72904;SDS011;61048;52.162;4.516;2023-11-19T06:52:30;12.38;;;1.67;;
72904;SDS011;61048;52.162;4.516;2023-11-19T06:54:57;10.38;;;1.63;;
72904;SDS011;61048;52.162;4.516;2023-11-19T06:57:24;8.82;;;1.63;;
72904;SDS011;61048;52.162;4.516;2023-11-19T06:59:51;11.55;;;1.70;;
72904;SDS011;61048;52.162;4.516;2023-11-19T07:02:18;7.13;;;1.50;;
72904;SDS011;61048;52.162;4.516;2023-11-19T07:04:46;14.23;;;1.48;;
72904;SDS011;61048;52.162;4.516;2023-11-19T07:07:13;15.38;;;1.55;;
72904;SDS011;61048;52.162;4.516;2023-11-19T07:09:41;10.95;;;1.38;;
72904;SDS011;61048;52.162;4.516;2023-11-19T07:12:07;10.10;;;1.30;;
72904;SDS011;61048;52.162;4.516;2023-11-19T07:14:34;11.43;;;1.27;;
72904;SDS011;61048;52.162;4.516;2023-11-19T07:17:01;13.60;;;1.52;;
72904;SDS011;61048;52.162;4.516;2023-11-19T07:19:28;11.68;;;1.92;;
72904;SDS011;61048;52.162;4.516;2023-11-19T07:21:57;10.35;;;1.58;;
72904;SDS011;61048;52.162;4.516;2023-11-19T07:24:24;10.75;;;1.40;;
72904;SDS011;61048;52.162;4.516;2023-11-19T07:26:53;12.52;;;1.50;;
72904;SDS011;61048;52.162;4.516;2023-11-19T07:29:20;7.93;;;1.15;;
72904;SDS011;61048;52.162;4.516;2023-11-19T07:31:48;12.45;;;1.48;;
72904;SDS011;61048;52.162;4.516;2023-11-19T07:34:16;13.52;;;1.42;;
72904;SDS011;61048;52.162;4.516;2023-11-19T07:36:43;13.43;;;1.27;;
72904;SDS011;61048;52.162;4.516;2023-11-19T07:39:11;11.38;;;1.67;;
72904;SDS011;61048;52.162;4.516;2023-11-19T07:41:38;9.13;;;1.13;;
72904;SDS011;61048;52.162;4.516;2023-11-19T07:44:05;11.52;;;1.33;;
72904;SDS011;61048;52.162;4.516;2023-11-19T07:46:32;9.80;;;1.27;;
72904;SDS011;61048;52.162;4.516;2023-11-19T07:48:59;10.95;;;1.33;;
72904;SDS011;61048;52.162;4.516;2023-11-19T07:51:27;9.60;;;1.25;;
72904;SDS011;61048;52.162;4.516;2023-11-19T07:53:54;12.50;;;1.10;;
72904;SDS011;61048;52.162;4.516;2023-11-19T07:56:22;10.75;;;1.75;;
72904;SDS011;61048;52.162;4.516;2023-11-19T07:58:49;11.32;;;1.20;;
72904;SDS011;61048;52.162;4.516;2023-11-19T08:01:17;10.95;;;1.52;;
72904;SDS011;61048;52.162;4.516;2023-11-19T08:03:44;10.38;;;1.65;;
72904;SDS011;61048;52.162;4.516;2023-11-19T08:06:10;10.15;;;1.50;;
72904;SDS011;61048;52.162;4.516;2023-11-19T08:08:38;11.43;;;1.33;;
72904;SDS011;61048;52.162;4.516;2023-11-19T08:11:05;12.07;;;1.55;;
72904;SDS011;61048;52.162;4.516;2023-11-19T08:13:33;11.73;;;1.55;;
72904;SDS011;61048;52.162;4.516;2023-11-19T08:16:00;16.90;;;2.28;;
72904;SDS011;61048;52.162;4.516;2023-11-19T08:18:27;9.07;;;1.17;;
72904;SDS011;61048;52.162;4.516;2023-11-19T08:20:54;9.38;;;1.20;;
72904;SDS011;61048;52.162;4.516;2023-11-19T08:23:23;9.43;;;1.25;;
72904;SDS011;61048;52.162;4.516;2023-11-19T08:25:50;12.13;;;1.55;;
72904;SDS011;61048;52.162;4.516;2023-11-19T08:28:17;18.90;;;1.63;;
72904;SDS011;61048;52.162;4.516;2023-11-19T08:30:45;13.35;;;1.88;;
72904;SDS011;61048;52.162;4.516;2023-11-19T08:33:12;18.45;;;1.67;;
72904;SDS011;61048;52.162;4.516;2023-11-19T08:35:40;13.23;;;1.45;;
72904;SDS011;61048;52.162;4.516;2023-11-19T08:38:07;15.30;;;1.27;;
72904;SDS011;61048;52.162;4.516;2023-11-19T08:40:34;11.52;;;1.10;;
72904;SDS011;61048;52.162;4.516;2023-11-19T08:43:00;11.75;;;1.98;;
72904;SDS011;61048;52.162;4.516;2023-11-19T08:45:27;14.73;;;1.92;;
72904;SDS011;61048;52.162;4.516;2023-11-19T08:47:55;22.48;;;2.15;;
72904;SDS011;61048;52.162;4.516;2023-11-19T08:50:23;12.75;;;1.73;;
72904;SDS011;61048;52.162;4.516;2023-11-19T08:52:50;12.60;;;1.70;;
72904;SDS011;61048;52.162;4.516;2023-11-19T08:55:17;10.48;;;1.52;;
72904;SDS011;61048;52.162;4.516;2023-11-19T08:57:44;10.32;;;1.38;;
72904;SDS011;61048;52.162;4.516;2023-11-19T09:00:11;6.57;;;1.33;;
72904;SDS011;61048;52.162;4.516;2023-11-19T09:02:40;13.50;;;1.77;;
72904;SDS011;61048;52.162;4.516;2023-11-19T09:05:09;14.38;;;2.03;;
72904;SDS011;61048;52.162;4.516;2023-11-19T09:07:37;14.55;;;1.52;;
72904;SDS011;61048;52.162;4.516;2023-11-19T09:10:04;15.25;;;2.22;;
72904;SDS011;61048;52.162;4.516;2023-11-19T09:12:33;13.95;;;2.63;;
72904;SDS011;61048;52.162;4.516;2023-11-19T09:15:00;21.73;;;4.80;;
72904;SDS011;61048;52.162;4.516;2023-11-19T09:17:27;34.90;;;7.28;;
72904;SDS011;61048;52.162;4.516;2023-11-19T09:19:54;45.60;;;7.95;;
72904;SDS011;61048;52.162;4.516;2023-11-19T09:22:23;39.70;;;8.90;;
72904;SDS011;61048;52.162;4.516;2023-11-19T09:24:50;39.92;;;8.27;;
72904;SDS011;61048;52.162;4.516;2023-11-19T09:27:16;44.00;;;10.02;;
72904;SDS011;61048;52.162;4.516;2023-11-19T09:29:43;49.08;;;11.32;;
72904;SDS011;61048;52.162;4.516;2023-11-19T09:32:11;50.78;;;12.02;;
72904;SDS011;61048;52.162;4.516;2023-11-19T09:34:38;44.10;;;9.57;;
72904;SDS011;61048;52.162;4.516;2023-11-19T09:37:05;37.92;;;7.32;;
72904;SDS011;61048;52.162;4.516;2023-11-19T09:39:34;29.65;;;6.35;;
72904;SDS011;61048;52.162;4.516;2023-11-19T09:42:01;30.35;;;5.70;;
72904;SDS011;61048;52.162;4.516;2023-11-19T09:44:28;31.45;;;6.50;;
72904;SDS011;61048;52.162;4.516;2023-11-19T09:46:55;27.13;;;5.20;;
72904;SDS011;61048;52.162;4.516;2023-11-19T09:49:24;24.88;;;4.90;;
72904;SDS011;61048;52.162;4.516;2023-11-19T09:51:53;22.50;;;4.32;;
72904;SDS011;61048;52.162;4.516;2023-11-19T09:54:20;24.75;;;4.13;;
72904;SDS011;61048;52.162;4.516;2023-11-19T09:56:49;22.67;;;3.80;;
72904;SDS011;61048;52.162;4.516;2023-11-19T09:59:16;19.77;;;3.33;;
72904;SDS011;61048;52.162;4.516;2023-11-19T10:01:43;18.42;;;3.25;;
72904;SDS011;61048;52.162;4.516;2023-11-19T10:04:12;15.75;;;2.95;;
72904;SDS011;61048;52.162;4.516;2023-11-19T10:06:42;16.48;;;2.97;;
72904;SDS011;61048;52.162;4.516;2023-11-19T10:09:11;12.88;;;2.50;;
72904;SDS011;61048;52.162;4.516;2023-11-19T10:11:40;15.18;;;2.28;;
72904;SDS011;61048;52.162;4.516;2023-11-19T10:14:08;17.90;;;3.22;;
72904;SDS011;61048;52.162;4.516;2023-11-19T10:16:36;15.50;;;1.98;;
72904;SDS011;61048;52.162;4.516;2023-11-19T10:19:04;15.20;;;2.25;;
72904;SDS011;61048;52.162;4.516;2023-11-19T10:21:32;13.43;;;2.28;;
72904;SDS011;61048;52.162;4.516;2023-11-19T10:23:59;13.77;;;1.60;;
72904;SDS011;61048;52.162;4.516;2023-11-19T10:26:26;15.48;;;2.45;;
72904;SDS011;61048;52.162;4.516;2023-11-19T10:28:55;11.50;;;2.17;;
72904;SDS011;61048;52.162;4.516;2023-11-19T10:31:23;13.93;;;2.20;;
72904;SDS011;61048;52.162;4.516;2023-11-19T10:33:51;15.45;;;2.00;;
72904;SDS011;61048;52.162;4.516;2023-11-19T10:36:20;9.57;;;1.45;;
72904;SDS011;61048;52.162;4.516;2023-11-19T10:38:52;11.43;;;2.55;;
72904;SDS011;61048;52.162;4.516;2023-11-19T10:41:26;17.15;;;1.67;;
72904;SDS011;61048;52.162;4.516;2023-11-19T10:43:54;17.02;;;1.85;;
72904;SDS011;61048;52.162;4.516;2023-11-19T10:46:21;13.32;;;1.65;;
72904;SDS011;61048;52.162;4.516;2023-11-19T10:48:49;17.85;;;2.10;;
72904;SDS011;61048;52.162;4.516;2023-11-19T10:51:18;15.50;;;1.60;;
72904;SDS011;61048;52.162;4.516;2023-11-19T10:53:48;12.55;;;1.73;;
72904;SDS011;61048;52.162;4.516;2023-11-19T10:56:16;13.38;;;1.52;;
72904;SDS011;61048;52.162;4.516;2023-11-19T10:58:47;12.48;;;1.40;;
72904;SDS011;61048;52.162;4.516;2023-11-19T11:01:18;9.45;;;1.77;;
72904;SDS011;61048;52.162;4.516;2023-11-19T11:03:47;13.75;;;1.20;;
72904;SDS011;61048;52.162;4.516;2023-11-19T11:06:17;11.48;;;1.40;;
72904;SDS011;61048;52.162;4.516;2023-11-19T11:08:45;14.48;;;2.30;;
72904;SDS011;61048;52.162;4.516;2023-11-19T11:11:13;12.40;;;1.98;;
72904;SDS011;61048;52.162;4.516;2023-11-19T11:13:42;9.13;;;1.38;;
72904;SDS011;61048;52.162;4.516;2023-11-19T11:16:10;12.80;;;1.63;;
72904;SDS011;61048;52.162;4.516;2023-11-19T11:18:37;13.15;;;1.75;;
72904;SDS011;61048;52.162;4.516;2023-11-19T11:21:05;8.80;;;1.35;;
72904;SDS011;61048;52.162;4.516;2023-11-19T11:23:40;13.15;;;1.92;;
72904;SDS011;61048;52.162;4.516;2023-11-19T11:26:42;12.57;;;1.67;;
72904;SDS011;61048;52.162;4.516;2023-11-19T11:29:26;11.45;;;1.15;;
72904;SDS011;61048;52.162;4.516;2023-11-19T11:32:03;13.23;;;1.50;;
72904;SDS011;61048;52.162;4.516;2023-11-19T11:34:42;12.80;;;1.13;;
72904;SDS011;61048;52.162;4.516;2023-11-19T11:37:18;11.70;;;1.30;;
72904;SDS011;61048;52.162;4.516;2023-11-19T11:39:50;13.50;;;1.67;;
72904;SDS011;61048;52.162;4.516;2023-11-19T11:42:33;9.88;;;1.25;;
72904;SDS011;61048;52.162;4.516;2023-11-19T11:45:01;11.32;;;1.40;;
72904;SDS011;61048;52.162;4.516;2023-11-19T11:50:46;12.75;;;1.50;;
72904;SDS011;61048;52.162;4.516;2023-11-19T11:53:18;13.65;;;1.63;;
72904;SDS011;61048;52.162;4.516;2023-11-19T11:55:58;11.50;;;1.30;;
72904;SDS011;61048;52.162;4.516;2023-11-19T11:58:35;16.25;;;1.75;;
72904;SDS011;61048;52.162;4.516;2023-11-19T12:01:04;9.73;;;1.40;;
72904;SDS011;61048;52.162;4.516;2023-11-19T12:03:34;11.65;;;1.33;;
72904;SDS011;61048;52.162;4.516;2023-11-19T12:06:03;10.32;;;1.50;;
72904;SDS011;61048;52.162;4.516;2023-11-19T12:08:31;11.48;;;2.10;;
72904;SDS011;61048;52.162;4.516;2023-11-19T12:11:03;11.90;;;1.85;;
72904;SDS011;61048;52.162;4.516;2023-11-19T12:13:46;12.80;;;1.45;;
72904;SDS011;61048;52.162;4.516;2023-11-19T12:16:23;10.10;;;1.50;;
72904;SDS011;61048;52.162;4.516;2023-11-19T12:18:52;11.82;;;1.48;;
72904;SDS011;61048;52.162;4.516;2023-11-19T12:21:29;8.88;;;1.20;;
72904;SDS011;61048;52.162;4.516;2023-11-19T12:23:58;11.73;;;1.85;;
72904;SDS011;61048;52.162;4.516;2023-11-19T12:26:36;11.15;;;1.52;;
72904;SDS011;61048;52.162;4.516;2023-11-19T12:29:04;9.48;;;1.40;;
72904;SDS011;61048;52.162;4.516;2023-11-19T12:31:32;9.23;;;1.42;;
72904;SDS011;61048;52.162;4.516;2023-11-19T12:34:08;10.45;;;1.27;;
72904;SDS011;61048;52.162;4.516;2023-11-19T12:36:37;12.52;;;1.65;;
72904;SDS011;61048;52.162;4.516;2023-11-19T12:39:08;14.38;;;1.55;;
72904;SDS011;61048;52.162;4.516;2023-11-19T12:44:24;10.18;;;1.45;;
72904;SDS011;61048;52.162;4.516;2023-11-19T12:47:01;9.02;;;1.70;;
72904;SDS011;61048;52.162;4.516;2023-11-19T12:49:29;14.40;;;1.65;;
72904;SDS011;61048;52.162;4.516;2023-11-19T12:51:56;10.93;;;1.77;;
72904;SDS011;61048;52.162;4.516;2023-11-19T12:54:31;12.68;;;1.70;;
72904;SDS011;61048;52.162;4.516;2023-11-19T12:57:02;12.90;;;1.92;;
72904;SDS011;61048;52.162;4.516;2023-11-19T12:59:30;9.93;;;1.65;;
72904;SDS011;61048;52.162;4.516;2023-11-19T13:01:57;12.00;;;1.52;;
72904;SDS011;61048;52.162;4.516;2023-11-19T13:04:27;12.07;;;1.83;;
72904;SDS011;61048;52.162;4.516;2023-11-19T13:06:55;10.77;;;1.23;;
72904;SDS011;61048;52.162;4.516;2023-11-19T13:09:23;10.63;;;1.10;;
72904;SDS011;61048;52.162;4.516;2023-11-19T13:11:50;14.57;;;1.55;;
72904;SDS011;61048;52.162;4.516;2023-11-19T13:14:19;11.13;;;1.88;;
72904;SDS011;61048;52.162;4.516;2023-11-19T13:16:46;11.15;;;1.90;;
72904;SDS011;61048;52.162;4.516;2023-11-19T13:19:13;15.88;;;1.60;;
72904;SDS011;61048;52.162;4.516;2023-11-19T13:21:41;10.95;;;1.73;;
72904;SDS011;61048;52.162;4.516;2023-11-19T13:24:11;10.43;;;1.40;;
72904;SDS011;61048;52.162;4.516;2023-11-19T13:26:38;13.30;;;2.05;;
72904;SDS011;61048;52.162;4.516;2023-11-19T13:29:05;20.77;;;1.50;;
72904;SDS011;61048;52.162;4.516;2023-11-19T13:31:33;14.95;;;1.70;;
72904;SDS011;61048;52.162;4.516;2023-11-19T13:34:00;16.67;;;1.75;;
72904;SDS011;61048;52.162;4.516;2023-11-19T13:36:27;17.50;;;1.90;;
72904;SDS011;61048;52.162;4.516;2023-11-19T13:38:54;10.82;;;1.55;;
72904;SDS011;61048;52.162;4.516;2023-11-19T13:41:24;13.52;;;2.05;;
72904;SDS011;61048;52.162;4.516;2023-11-19T13:43:51;16.67;;;1.67;;
72904;SDS011;61048;52.162;4.516;2023-11-19T13:46:18;15.90;;;1.40;;
72904;SDS011;61048;52.162;4.516;2023-11-19T13:48:46;10.90;;;1.90;;
72904;SDS011;61048;52.162;4.516;2023-11-19T13:51:14;9.73;;;1.40;;
72904;SDS011;61048;52.162;4.516;2023-11-19T13:53:41;13.75;;;1.90;;
72904;SDS011;61048;52.162;4.516;2023-11-19T13:56:09;12.00;;;1.95;;
72904;SDS011;61048;52.162;4.516;2023-11-19T13:58:36;12.60;;;1.88;;
72904;SDS011;61048;52.162;4.516;2023-11-19T14:01:03;9.65;;;1.42;;
72904;SDS011;61048;52.162;4.516;2023-11-19T14:03:30;10.73;;;1.48;;
72904;SDS011;61048;52.162;4.516;2023-11-19T14:06:00;16.42;;;2.30;;
72904;SDS011;61048;52.162;4.516;2023-11-19T14:08:27;18.33;;;1.83;;
72904;SDS011;61048;52.162;4.516;2023-11-19T14:10:54;10.75;;;1.20;;
72904;SDS011;61048;52.162;4.516;2023-11-19T14:13:21;13.57;;;2.97;;
72904;SDS011;61048;52.162;4.516;2023-11-19T14:15:49;10.25;;;1.23;;
72904;SDS011;61048;52.162;4.516;2023-11-19T14:18:16;12.32;;;1.40;;
72904;SDS011;61048;52.162;4.516;2023-11-19T14:20:43;11.70;;;1.70;;
72904;SDS011;61048;52.162;4.516;2023-11-19T14:23:11;12.68;;;1.60;;
72904;SDS011;61048;52.162;4.516;2023-11-19T14:25:38;11.88;;;1.67;;
72904;SDS011;61048;52.162;4.516;2023-11-19T14:28:05;15.25;;;1.42;;
72904;SDS011;61048;52.162;4.516;2023-11-19T14:30:32;13.45;;;2.10;;
72904;SDS011;61048;52.162;4.516;2023-11-19T14:33:00;10.38;;;1.38;;
72904;SDS011;61048;52.162;4.516;2023-11-19T14:35:28;14.00;;;1.13;;
72904;SDS011;61048;52.162;4.516;2023-11-19T14:37:57;8.40;;;1.02;;
72904;SDS011;61048;52.162;4.516;2023-11-19T14:40:26;12.90;;;1.85;;
72904;SDS011;61048;52.162;4.516;2023-11-19T14:42:53;11.93;;;1.90;;
72904;SDS011;61048;52.162;4.516;2023-11-19T14:45:19;15.35;;;2.00;;
72904;SDS011;61048;52.162;4.516;2023-11-19T14:47:47;13.73;;;1.83;;
72904;SDS011;61048;52.162;4.516;2023-11-19T14:50:14;11.43;;;1.77;;